All Spectrum Aviation - Van Nuys Airport - KVNY

HOME

Van Nuys Tower Recordings

Condor Squadron KVNY Webcam

Visit our Electronics Store

Condor Squadron Webcam - Van Nuys Airport - KVNY
Picture taken: Mon, 02 May 2016 01:11:43 -0700
YouTube Channel!    Latest Timelapse Movie    Full Size Image    Regular Size Image    

2016/05/02 07:51 KVNY 020751Z AUTO 06004KT 10SM FEW110 14/11 A3001 RMK AO2 SLP155 T01440106 402390122

HOME

Van Nuys Tower Recordings

Condor Squadron KVNY Webcam

Visit our Electronics Store